Minot, North Dakota
Current Conditions -  °F | °C
As of 7:54 PM on Sunday 25 Jan 2015 (Local Time) from KMOT Reporting Station
Clear Clear  
Wind Chill: -3°   Ceiling: Unl
Heat Index:   Visibility: 10mi
Dew Point: -1°   Wind: 18mph
Humidity: 79%   Direction: 220°SW
Pressure: 29.73"   Gusts: 28mph
Location:  48.24°N, 101.29°W
Report Text: KMOT 260154Z 22016G24KT 10SM CLR 03/M01 A2973 RMK AO2 SLP087 T00281006
Loading
Personal Weather Stations






























Interactive Weather Map New forecast layout! Learn more

10-Day Weather Forecast

Advertisements
Track Severe Weather on mobile